createdAt,value
2022-11-01T00:01:39.111Z,67.2
2022-11-01T00:06:39.115Z,67.1
2022-11-01T00:16:39.059Z,67.1
2022-11-01T00:21:39.093Z,66.8
2022-11-01T00:31:39.091Z,66.9
2022-11-01T00:36:39.096Z,66.8
2022-11-01T00:46:39.073Z,66.8
2022-11-01T01:01:39.298Z,67
2022-11-01T01:06:39.104Z,67
2022-11-01T01:16:39.206Z,66.9
2022-11-01T01:26:39.134Z,67.1
2022-11-01T01:36:39.075Z,67.1
2022-11-01T01:41:39.094Z,67.1
2022-11-01T01:51:39.105Z,67.2
2022-11-01T01:56:39.096Z,67.2
2022-11-01T02:21:39.135Z,67.6
2022-11-01T02:26:39.094Z,67.8
2022-11-01T02:36:39.105Z,67.9
2022-11-01T02:46:39.112Z,68.2
2022-11-01T02:56:39.104Z,68.2
2022-11-01T03:06:39.133Z,68.2
2022-11-01T03:16:39.094Z,68.4
2022-11-01T03:21:39.108Z,68.4
2022-11-01T03:36:39.129Z,68.7
2022-11-01T03:41:39.096Z,68.6
2022-11-01T03:46:39.141Z,68.7
2022-11-01T03:56:39.138Z,68.9
2022-11-01T04:01:39.376Z,69
2022-11-01T04:11:39.135Z,69.1
2022-11-01T04:16:39.156Z,69.3
2022-11-01T04:26:39.124Z,69.5
2022-11-01T04:36:39.155Z,69.6
2022-11-01T04:56:39.156Z,70
2022-11-01T05:06:39.111Z,70.3
2022-11-01T05:11:39.134Z,70.2
2022-11-01T05:21:39.134Z,70.4
2022-11-01T05:26:39.135Z,70.4
2022-11-01T05:31:39.124Z,70.3
2022-11-01T05:41:39.449Z,70.3
2022-11-01T05:51:39.132Z,70.6
2022-11-01T06:16:39.148Z,70.6
2022-11-01T06:21:39.132Z,70.6
2022-11-01T06:31:39.159Z,70.5
2022-11-01T06:41:39.162Z,70.4
2022-11-01T06:46:39.135Z,70.3
2022-11-01T06:56:39.136Z,70.8
2022-11-01T07:01:39.375Z,70.2
2022-11-01T07:06:39.142Z,70.1
2022-11-01T07:36:39.163Z,70
2022-11-01T07:46:39.142Z,69.4
2022-11-01T07:56:39.169Z,69.3
2022-11-01T08:01:39.287Z,69.3
2022-11-01T08:06:39.144Z,69.2
2022-11-01T08:11:39.160Z,68.9
2022-11-01T08:21:39.175Z,68.5
2022-11-01T08:26:39.177Z,68.4
2022-11-01T08:51:39.180Z,67.8
2022-11-01T08:56:39.162Z,68.4
2022-11-01T09:06:39.182Z,67.1
2022-11-01T09:16:39.189Z,66.9
2022-11-01T09:21:39.191Z,66.7
2022-11-01T09:31:39.174Z,66.4
2022-11-01T09:36:39.206Z,66.5
2022-11-01T09:41:39.191Z,66.5
2022-11-01T09:51:39.163Z,66.1
2022-11-01T10:11:39.204Z,66
2022-11-01T10:16:39.199Z,66
2022-11-01T10:26:39.168Z,65.9
2022-11-01T10:36:39.298Z,65.2
2022-11-01T10:41:39.178Z,65.4
2022-11-01T10:46:39.170Z,64.8
2022-11-01T10:51:39.166Z,65
2022-11-01T10:56:39.208Z,64.7
2022-11-01T11:01:39.432Z,64.8
2022-11-01T11:11:39.215Z,64.2
2022-11-01T11:26:39.443Z,64.1
2022-11-01T11:31:39.189Z,63.8
2022-11-01T11:41:39.306Z,63.7
2022-11-01T11:46:39.212Z,63.5
2022-11-01T11:56:39.174Z,63.1
2022-11-01T12:01:39.261Z,63
2022-11-01T12:11:39.240Z,62.6
2022-11-01T12:16:39.193Z,62.9
2022-11-01T12:26:39.183Z,62.6
2022-11-01T12:46:39.227Z,62.2
2022-11-01T12:51:39.191Z,62.3
2022-11-01T12:56:39.205Z,62.4
2022-11-01T13:06:39.235Z,62.2
2022-11-01T13:16:39.208Z,62
2022-11-01T13:26:39.208Z,62.2
2022-11-01T13:31:39.191Z,62.3
2022-11-01T13:36:39.220Z,62.5
2022-11-01T13:46:39.218Z,61.3
2022-11-01T14:01:39.321Z,61.3
2022-11-01T14:11:39.266Z,60.8
2022-11-01T14:21:39.215Z,60.8
2022-11-01T14:26:39.217Z,61.2
2022-11-01T14:31:39.288Z,60.5
2022-11-01T14:36:39.252Z,60.9
2022-11-01T14:46:45.666Z,61
2022-11-01T14:56:41.164Z,60.6
2022-11-01T15:21:42.859Z,60.2
2022-11-01T15:26:39.230Z,60.1
2022-11-01T15:31:39.237Z,60.3
2022-11-01T15:41:39.252Z,60.3
2022-11-01T15:51:39.234Z,60.6
2022-11-01T16:01:39.549Z,60.3
2022-11-01T16:11:39.227Z,60.5
2022-11-01T16:16:39.242Z,60.4
2022-11-01T16:36:39.243Z,60.4
2022-11-01T16:46:39.242Z,60.7
2022-11-01T16:56:39.267Z,60
2022-11-01T17:06:39.559Z,60
2022-11-01T17:11:39.233Z,60.2
2022-11-01T17:21:39.257Z,60.2
2022-11-01T17:31:39.244Z,60
2022-11-01T17:36:39.220Z,60
2022-11-01T17:56:39.247Z,59.8
2022-11-01T18:01:39.533Z,59.6
2022-11-01T18:06:39.231Z,59.7
2022-11-01T18:16:39.264Z,59.7
2022-11-01T18:21:39.231Z,59.6
2022-11-01T18:26:39.237Z,59.6
2022-11-01T18:31:39.255Z,59.5
2022-11-01T18:41:39.271Z,59.5
2022-11-01T18:46:39.242Z,59.5
2022-11-01T18:51:39.242Z,59.5
2022-11-01T18:56:39.252Z,59.4
2022-11-01T19:11:39.267Z,59.4
2022-11-01T19:21:39.245Z,59.5
2022-11-01T19:31:39.276Z,59.3
2022-11-01T19:41:39.258Z,59.3
2022-11-01T19:46:39.264Z,59.4
2022-11-01T19:51:39.282Z,59.4
2022-11-01T20:01:39.439Z,59.4
2022-11-01T20:06:39.260Z,59.3
2022-11-01T20:31:39.297Z,59.2
2022-11-01T20:36:39.291Z,59.1
2022-11-01T20:41:39.266Z,59.3
2022-11-01T20:46:39.275Z,59.2
2022-11-01T20:51:39.299Z,59.2
2022-11-01T21:01:39.490Z,59
2022-11-01T21:06:39.365Z,59
2022-11-01T21:16:39.298Z,59.1
2022-11-01T21:26:39.265Z,58.8
2022-11-01T21:51:39.288Z,58.7
2022-11-01T22:01:39.402Z,59.1
2022-11-01T22:11:39.304Z,58.7
2022-11-01T22:21:39.356Z,58.7
2022-11-01T22:31:39.307Z,58.8
2022-11-01T22:41:39.275Z,59.1
2022-11-01T22:46:39.275Z,58.9
2022-11-01T23:06:39.304Z,59.1
2022-11-01T23:16:39.261Z,59.1
2022-11-01T23:21:39.274Z,58.8
2022-11-01T23:31:39.516Z,59.3
2022-11-01T23:36:39.518Z,59.7
2022-11-01T23:46:39.261Z,59.2
2022-11-01T23:56:39.316Z,59.4
